Augusta, Michigan
Current Conditions -  °F | °C
As of 1:53 PM on Saturday 25 Oct 2014 (Local Time) from KBTL Reporting Station
Clear Clear  
Wind Chill: 65°   Ceiling: Unl
Heat Index: 65°   Visibility: 10mi
Dew Point: 47°   Wind: 20mph
Humidity: 52%   Direction: 260°W
Pressure: 29.84"   Gusts: NA
Location:  42.34°N, 85.35°W
Report Text: KBTL 251753Z 26017KT 10SM CLR 18/08 A2984 RMK AO2 SLP104 T01830083 10189 20122 58016
Loading
Personal Weather Stations






























Interactive Weather Map
Tropical Storm Tracking
New forecast layout! Learn more

10-Day Weather Forecast

Advertisements
Track Severe Weather on mobile